Ashville, Pennsylvania
Current Conditions -  °F | °C
As of 3:53 AM on Sunday 21 Dec 2014 (Local Time) from KAOO Reporting Station
Overcast Overcast  
Wind Chill: 26°   Ceiling: 2700
Heat Index: 26°   Visibility: 7mi
Dew Point: 23°   Wind: 0mph
Humidity: 88%   Direction: NA
Pressure: 30.24"   Gusts: NA
Location:  40.56°N, 78.55°W
Report Text: KAOO 210853Z AUTO 00000KT 7SM BKN027 OVC095 M03/M05 A3024 RMK AO2 SLP259 T10331050 50006
Loading
Personal Weather Stations






























Interactive Weather Map New forecast layout! Learn more

10-Day Weather Forecast

Advertisements
Track Severe Weather on mobile